Time;durP1;ratioP1;P1;durP2;ratioP2;P2;SDS_P1;SDS_P2;PMS_P1;PMS_P2;Temp;Humidity;BMP_temperature;BMP_pressure;BME280_temperature;BME280_humidity;BME280_pressure;Samples;Min_cycle;Max_cycle;Signal;HPM_P1;HPM_P2
2021/07/25 00:01:21;;;;;;;23.08;15.30;;;;;;;;;;5014060;28;20363;-70
2021/07/25 00:03:47;;;;;;;25.25;15.68;;;;;;;;;;5013596;28;20470;-71
2021/07/25 00:06:16;;;;;;;29.70;16.23;;;;;;;;;;5013032;28;20032;-69
2021/07/25 00:08:42;;;;;;;21.40;15.77;;;;;;;;;;5013668;28;20542;-68
2021/07/25 00:11:08;;;;;;;22.23;14.90;;;;;;;;;;5013727;28;20157;-67
2021/07/25 00:13:39;;;;;;;27.63;16.75;;;;;;;;;;5013438;28;20533;-67
2021/07/25 00:16:06;;;;;;;26.77;15.80;;;;;;;;;;4996174;28;20025;-68
2021/07/25 00:18:32;;;;;;;25.77;16.63;;;;;;;;;;5013151;28;20378;-70
2021/07/25 00:20:58;;;;;;;22.92;16.35;;;;;;;;;;5013625;28;20018;-69
2021/07/25 00:23:26;;;;;;;29.85;16.20;;;;;;;;;;5013486;28;20014;-68
2021/07/25 00:25:54;;;;;;;33.85;18.20;;;;;;;;;;5012851;28;20026;-70
2021/07/25 00:28:20;;;;;;;25.83;16.95;;;;;;;;;;5013084;28;20113;-70
2021/07/25 00:30:46;;;;;;;25.50;16.75;;;;;;;;;;5013141;28;20018;-70
2021/07/25 00:33:12;;;;;;;27.63;16.95;;;;;;;;;;5013220;28;20103;-69
2021/07/25 00:35:37;;;;;;;24.67;15.63;;;;;;;;;;5012871;28;20022;-67
2021/07/25 00:38:03;;;;;;;23.20;15.75;;;;;;;;;;5013185;28;20033;-70
2021/07/25 00:40:36;;;;;;;28.73;15.77;;;;;;;;;;5012796;28;20100;-68
2021/07/25 00:43:02;;;;;;;23.25;16.63;;;;;;;;;;5013214;28;20017;-70
2021/07/25 00:45:29;;;;;;;24.65;16.67;;;;;;;;;;4993789;28;20030;-69
2021/07/25 00:47:55;;;;;;;24.15;16.25;;;;;;;;;;5012963;28;20018;-70
2021/07/25 00:50:21;;;;;;;26.48;16.33;;;;;;;;;;4995126;28;20022;-69
2021/07/25 00:52:47;;;;;;;20.88;15.75;;;;;;;;;;5012931;28;20026;-70
2021/07/25 00:55:13;;;;;;;21.45;14.65;;;;;;;;;;5012583;28;20045;-68
2021/07/25 00:57:39;;;;;;;25.38;16.50;;;;;;;;;;4995332;28;20033;-69
2021/07/25 01:00:07;;;;;;;22.48;16.00;;;;;;;;;;5012488;28;20022;-68
2021/07/25 01:02:35;;;;;;;26.83;15.93;;;;;;;;;;5012526;28;20030;-70
2021/07/25 01:05:09;;;;;;;24.63;16.60;;;;;;;;;;5012536;28;20026;-68
2021/07/25 01:07:45;;;;;;;25.20;15.77;;;;;;;;;;4995064;28;20021;-70
2021/07/25 01:10:17;;;;;;;24.60;15.52;;;;;;;;;;4978690;28;20054;-70
2021/07/25 01:12:44;;;;;;;19.10;14.95;;;;;;;;;;5012348;28;20030;-67
2021/07/25 01:15:12;;;;;;;23.42;14.85;;;;;;;;;;5012302;28;20014;-69
2021/07/25 01:17:39;;;;;;;28.13;16.05;;;;;;;;;;5012171;28;20076;-67
2021/07/25 01:20:06;;;;;;;21.85;14.73;;;;;;;;;;4994957;28;20055;-71
2021/07/25 01:22:39;;;;;;;27.60;16.55;;;;;;;;;;5012343;28;20021;-70
2021/07/25 01:25:07;;;;;;;26.00;15.27;;;;;;;;;;5012010;28;20026;-69
2021/07/25 01:27:38;;;;;;;21.77;14.77;;;;;;;;;;5012139;28;20022;-69
2021/07/25 01:30:06;;;;;;;27.65;17.08;;;;;;;;;;5012429;28;20053;-70
2021/07/25 01:32:32;;;;;;;25.77;15.02;;;;;;;;;;5012155;28;20101;-68
2021/07/25 01:35:00;;;;;;;20.65;15.77;;;;;;;;;;5012479;28;20060;-71
2021/07/25 01:37:30;;;;;;;21.83;15.85;;;;;;;;;;5012215;28;20496;-69
2021/07/25 01:39:56;;;;;;;19.80;13.38;;;;;;;;;;5011728;28;20046;-72
2021/07/25 01:42:34;;;;;;;22.35;14.80;;;;;;;;;;5012168;28;20060;-67
2021/07/25 01:44:59;;;;;;;21.33;15.05;;;;;;;;;;4994372;28;20057;-69
2021/07/25 01:47:26;;;;;;;23.38;15.20;;;;;;;;;;5012174;28;20469;-66
2021/07/25 01:49:51;;;;;;;18.67;13.60;;;;;;;;;;5012152;28;20022;-68
2021/07/25 01:52:16;;;;;;;22.58;16.25;;;;;;;;;;5011667;28;20103;-71
2021/07/25 01:54:43;;;;;;;26.25;16.42;;;;;;;;;;5011775;28;20022;-69
2021/07/25 01:57:10;;;;;;;21.13;15.07;;;;;;;;;;5013887;28;20028;-71
2021/07/25 01:59:36;;;;;;;21.30;16.25;;;;;;;;;;5016391;28;20069;-71
2021/07/25 02:02:01;;;;;;;24.98;14.80;;;;;;;;;;5016385;28;20025;-70
2021/07/25 02:04:27;;;;;;;22.33;14.90;;;;;;;;;;5015930;28;20387;-69
2021/07/25 02:06:53;;;;;;;26.73;15.57;;;;;;;;;;5015563;28;20910;-70
2021/07/25 02:09:20;;;;;;;25.17;16.65;;;;;;;;;;5016007;28;20045;-67
2021/07/25 02:11:46;;;;;;;25.15;16.10;;;;;;;;;;5015920;28;20014;-69
2021/07/25 02:14:11;;;;;;;22.70;14.88;;;;;;;;;;5015467;28;20026;-70
2021/07/25 02:16:38;;;;;;;25.02;16.73;;;;;;;;;;5015067;28;20473;-71
2021/07/25 02:19:04;;;;;;;24.60;16.17;;;;;;;;;;5015805;28;20018;-70
2021/07/25 02:21:29;;;;;;;24.60;16.98;;;;;;;;;;5015864;28;20104;-68
2021/07/25 02:23:54;;;;;;;27.92;18.00;;;;;;;;;;5015337;28;20113;-69
2021/07/25 02:26:20;;;;;;;22.60;16.35;;;;;;;;;;5015039;28;20017;-68
2021/07/25 02:28:46;;;;;;;24.17;16.30;;;;;;;;;;5015675;28;20105;-71
2021/07/25 02:31:12;;;;;;;24.17;16.60;;;;;;;;;;5015698;28;20025;-69
2021/07/25 02:33:39;;;;;;;27.33;17.13;;;;;;;;;;5015512;28;20030;-71
2021/07/25 02:36:05;;;;;;;23.60;17.13;;;;;;;;;;5014842;28;20021;-71
2021/07/25 02:38:30;;;;;;;23.70;15.93;;;;;;;;;;5014661;28;20080;-70
2021/07/25 02:40:56;;;;;;;24.15;16.92;;;;;;;;;;5015436;28;20478;-72
2021/07/25 02:43:22;;;;;;;28.52;18.10;;;;;;;;;;5015405;28;20093;-70
2021/07/25 02:45:49;;;;;;;24.77;17.10;;;;;;;;;;4997247;28;20429;-67
2021/07/25 02:48:15;;;;;;;27.02;17.30;;;;;;;;;;5015430;28;20021;-73
2021/07/25 02:50:41;;;;;;;28.35;18.90;;;;;;;;;;5015096;28;20478;-70
2021/07/25 02:53:07;;;;;;;27.55;18.77;;;;;;;;;;5014862;28;20045;-72
2021/07/25 02:55:33;;;;;;;28.83;19.23;;;;;;;;;;4997109;28;20420;-70
2021/07/25 02:57:58;;;;;;;24.00;17.35;;;;;;;;;;5014980;28;20018;-70
2021/07/25 03:00:25;;;;;;;26.55;19.65;;;;;;;;;;5014837;28;20351;-71
2021/07/25 03:02:50;;;;;;;27.23;19.88;;;;;;;;;;5014953;28;20026;-68
2021/07/25 03:05:15;;;;;;;35.00;20.45;;;;;;;;;;4997279;28;20480;-69
2021/07/25 03:07:42;;;;;;;28.30;20.15;;;;;;;;;;5014006;28;20104;-69
2021/07/25 03:10:08;;;;;;;29.92;20.35;;;;;;;;;;4997035;28;20021;-70
2021/07/25 03:12:34;;;;;;;27.55;20.38;;;;;;;;;;5014727;28;20027;-71
2021/07/25 03:15:00;;;;;;;32.55;21.95;;;;;;;;;;5014395;28;20018;-68
2021/07/25 03:17:26;;;;;;;29.40;20.55;;;;;;;;;;5014650;28;20466;-70
2021/07/25 03:19:52;;;;;;;30.33;22.60;;;;;;;;;;5014922;28;20025;-70
2021/07/25 03:22:20;;;;;;;31.55;22.65;;;;;;;;;;5014546;28;20045;-69
2021/07/25 03:24:46;;;;;;;33.45;20.83;;;;;;;;;;5014570;28;20022;-67
2021/07/25 03:27:11;;;;;;;32.40;23.00;;;;;;;;;;5014446;28;20071;-66
2021/07/25 03:29:38;;;;;;;29.95;22.90;;;;;;;;;;4997270;28;20116;-67
2021/07/25 03:32:03;;;;;;;33.55;22.63;;;;;;;;;;5014375;28;20034;-70
2021/07/25 03:34:31;;;;;;;28.52;21.85;;;;;;;;;;5013932;28;20384;-70
2021/07/25 03:36:57;;;;;;;32.50;24.15;;;;;;;;;;5014015;28;20013;-72
2021/07/25 03:39:23;;;;;;;34.78;22.42;;;;;;;;;;5013935;28;20064;-69
2021/07/25 03:41:50;;;;;;;34.60;24.05;;;;;;;;;;5014139;28;20520;-71
2021/07/25 03:44:15;;;;;;;29.08;21.85;;;;;;;;;;5013922;28;20033;-69
2021/07/25 03:46:42;;;;;;;33.47;22.13;;;;;;;;;;5014001;28;20013;-67
2021/07/25 03:49:08;;;;;;;34.33;23.70;;;;;;;;;;5014230;28;20076;-66
2021/07/25 03:51:36;;;;;;;33.97;23.10;;;;;;;;;;4996305;28;20065;-70
2021/07/25 03:54:03;;;;;;;33.33;23.50;;;;;;;;;;5013830;28;20438;-69
2021/07/25 03:56:29;;;;;;;37.05;24.95;;;;;;;;;;5013776;28;20026;-69
2021/07/25 03:58:55;;;;;;;31.13;23.17;;;;;;;;;;5014100;28;20588;-68
2021/07/25 04:01:21;;;;;;;36.00;22.48;;;;;;;;;;5014004;28;20083;-67
2021/07/25 04:03:47;;;;;;;32.92;23.65;;;;;;;;;;5013858;28;20029;-69
2021/07/25 04:06:12;;;;;;;36.72;23.98;;;;;;;;;;5012916;28;20479;-68
2021/07/25 04:08:38;;;;;;;31.05;22.73;;;;;;;;;;5013698;28;20028;-67
2021/07/25 04:11:04;;;;;;;36.83;23.17;;;;;;;;;;4996375;28;20018;-68
2021/07/25 04:13:30;;;;;;;35.95;25.70;;;;;;;;;;5013644;28;20033;-68
2021/07/25 04:15:56;;;;;;;33.63;23.77;;;;;;;;;;5012770;28;20021;-67
2021/07/25 04:18:22;;;;;;;35.65;24.10;;;;;;;;;;4995832;28;20471;-66
2021/07/25 04:20:48;;;;;;;31.42;23.17;;;;;;;;;;4995710;28;20026;-68
2021/07/25 04:23:14;;;;;;;29.55;21.98;;;;;;;;;;5013680;28;20014;-68
2021/07/25 04:25:40;;;;;;;31.35;22.23;;;;;;;;;;5013067;28;20060;-70
2021/07/25 04:28:06;;;;;;;35.75;22.25;;;;;;;;;;4995775;28;20010;-67
2021/07/25 04:30:34;;;;;;;31.92;22.95;;;;;;;;;;4995922;28;20068;-68
2021/07/25 04:33:04;;;;;;;34.75;21.92;;;;;;;;;;4996402;28;20046;-69
2021/07/25 04:35:32;;;;;;;28.02;20.60;;;;;;;;;;5012824;28;20022;-70
2021/07/25 04:37:58;;;;;;;28.98;19.92;;;;;;;;;;5013194;28;20109;-68
2021/07/25 04:40:24;;;;;;;28.75;20.17;;;;;;;;;;5012790;28;20141;-68
2021/07/25 04:42:53;;;;;;;30.23;21.40;;;;;;;;;;5013180;28;20064;-70
2021/07/25 04:45:22;;;;;;;28.95;19.38;;;;;;;;;;5012650;28;20041;-69
2021/07/25 04:47:58;;;;;;;28.48;19.63;;;;;;;;;;5013123;28;20018;-69
2021/07/25 04:50:28;;;;;;;22.52;18.08;;;;;;;;;;5012910;28;20471;-67
2021/07/25 04:52:59;;;;;;;29.17;19.25;;;;;;;;;;5012957;28;20022;-67
2021/07/25 04:55:24;;;;;;;24.52;16.90;;;;;;;;;;5012448;28;20101;-70
2021/07/25 04:57:54;;;;;;;23.60;16.33;;;;;;;;;;5012997;28;20110;-71
2021/07/25 05:00:21;;;;;;;26.00;15.90;;;;;;;;;;5012807;28;20028;-71
2021/07/25 05:02:55;;;;;;;23.10;15.07;;;;;;;;;;4994924;28;20356;-72
2021/07/25 05:05:21;;;;;;;18.95;15.27;;;;;;;;;;4994913;28;20021;-70
2021/07/25 05:07:46;;;;;;;19.50;14.98;;;;;;;;;;4995342;28;20022;-69
2021/07/25 05:10:13;;;;;;;26.55;15.95;;;;;;;;;;5012670;28;20014;-68
2021/07/25 05:12:41;;;;;;;44.15;19.95;;;;;;;;;;5012558;28;20499;-69
2021/07/25 05:15:12;;;;;;;38.13;20.35;;;;;;;;;;5012167;28;20022;-67
2021/07/25 05:17:51;;;;;;;31.58;17.88;;;;;;;;;;5012592;28;20029;-71
2021/07/25 05:20:17;;;;;;;31.52;19.17;;;;;;;;;;4994949;28;20026;-70
2021/07/25 05:23:01;;;;;;;33.83;19.33;;;;;;;;;;5012581;28;20086;-69
2021/07/25 05:25:28;;;;;;;30.85;19.88;;;;;;;;;;5011948;28;20499;-69
2021/07/25 05:27:54;;;;;;;34.33;20.65;;;;;;;;;;5012310;28;20391;-69
2021/07/25 05:30:20;;;;;;;30.75;21.08;;;;;;;;;;5012337;28;20025;-71
2021/07/25 05:32:46;;;;;;;30.90;21.27;;;;;;;;;;5011721;28;20018;-71
2021/07/25 05:35:12;;;;;;;33.38;21.27;;;;;;;;;;5012054;28;20097;-69
2021/07/25 05:37:38;;;;;;;29.75;21.05;;;;;;;;;;5012425;28;20020;-68
2021/07/25 05:40:05;;;;;;;31.20;22.38;;;;;;;;;;5011963;28;20046;-71
2021/07/25 05:42:30;;;;;;;33.08;22.02;;;;;;;;;;5012039;28;20077;-70
2021/07/25 05:44:56;;;;;;;27.55;21.75;;;;;;;;;;5011601;28;20021;-70
2021/07/25 05:47:21;;;;;;;34.28;24.08;;;;;;;;;;5012178;28;20076;-69
2021/07/25 05:49:46;;;;;;;36.55;24.60;;;;;;;;;;5012250;28;20471;-68
2021/07/25 05:52:13;;;;;;;76.82;42.88;;;;;;;;;;5012053;28;20053;-69
2021/07/25 05:54:38;;;;;;;62.58;34.90;;;;;;;;;;5011864;28;20473;-72
2021/07/25 05:57:04;;;;;;;52.42;31.85;;;;;;;;;;5011653;28;20017;-67
2021/07/25 05:59:31;;;;;;;47.55;29.58;;;;;;;;;;5012472;28;20018;-70
2021/07/25 06:01:59;;;;;;;42.28;27.45;;;;;;;;;;5011889;28;20006;-68
2021/07/25 06:04:25;;;;;;;48.67;27.17;;;;;;;;;;4994404;28;20029;-70
2021/07/25 06:06:50;;;;;;;46.20;27.08;;;;;;;;;;5011642;28;20026;-68
2021/07/25 06:09:16;;;;;;;35.67;26.08;;;;;;;;;;5012157;28;20026;-70
2021/07/25 06:11:43;;;;;;;35.88;25.33;;;;;;;;;;4994327;28;20029;-66
2021/07/25 06:14:09;;;;;;;41.83;24.92;;;;;;;;;;5011679;28;20104;-68
2021/07/25 06:16:35;;;;;;;40.92;26.42;;;;;;;;;;5011445;28;20524;-68
2021/07/25 06:19:00;;;;;;;39.10;24.63;;;;;;;;;;4994477;28;20014;-69
2021/07/25 06:21:27;;;;;;;35.78;23.58;;;;;;;;;;5004124;28;20096;-68
2021/07/25 06:23:55;;;;;;;29.90;22.05;;;;;;;;;;4994147;28;20050;-68
2021/07/25 06:26:21;;;;;;;30.88;23.10;;;;;;;;;;5011010;28;20104;-69
2021/07/25 06:28:51;;;;;;;32.03;23.10;;;;;;;;;;5011913;28;20014;-67
2021/07/25 06:31:16;;;;;;;32.83;22.30;;;;;;;;;;5012018;28;20383;-69
2021/07/25 06:33:42;;;;;;;31.17;21.85;;;;;;;;;;5011916;28;20030;-68
2021/07/25 06:36:10;;;;;;;33.47;21.02;;;;;;;;;;5011575;28;20437;-67
2021/07/25 06:38:36;;;;;;;24.02;18.33;;;;;;;;;;5011793;28;20470;-70
2021/07/25 06:41:01;;;;;;;23.02;17.65;;;;;;;;;;5011511;28;20042;-68
2021/07/25 06:43:28;;;;;;;24.83;18.55;;;;;;;;;;5014091;28;20034;-69
2021/07/25 06:45:53;;;;;;;24.92;17.80;;;;;;;;;;5014802;28;20029;-68
2021/07/25 06:48:20;;;;;;;24.42;16.83;;;;;;;;;;5015118;28;20017;-70
2021/07/25 06:50:48;;;;;;;25.13;16.80;;;;;;;;;;5015100;28;20079;-71
2021/07/25 06:53:14;;;;;;;21.05;16.13;;;;;;;;;;4997687;28;20486;-71
2021/07/25 06:55:39;;;;;;;23.20;15.90;;;;;;;;;;5014495;28;20491;-68
2021/07/25 06:58:05;;;;;;;24.63;15.15;;;;;;;;;;5015007;28;20014;-68
2021/07/25 07:00:31;;;;;;;24.60;15.27;;;;;;;;;;5015344;28;20029;-72
2021/07/25 07:02:57;;;;;;;20.55;14.50;;;;;;;;;;5014946;28;20028;-71
2021/07/25 07:05:23;;;;;;;20.88;14.57;;;;;;;;;;4997335;28;20104;-70
2021/07/25 07:07:50;;;;;;;20.67;14.77;;;;;;;;;;4997227;28;20554;-72
2021/07/25 07:10:16;;;;;;;19.33;13.70;;;;;;;;;;5014614;28;20045;-70
2021/07/25 07:12:42;;;;;;;21.08;14.07;;;;;;;;;;5014805;28;20096;-68
2021/07/25 07:15:08;;;;;;;17.35;13.20;;;;;;;;;;5014665;28;20029;-71
2021/07/25 07:17:34;;;;;;;17.42;12.43;;;;;;;;;;5014814;28;20048;-71
2021/07/25 07:20:00;;;;;;;17.15;11.88;;;;;;;;;;5014512;28;20010;-70
2021/07/25 07:22:30;;;;;;;22.00;11.68;;;;;;;;;;5014596;28;20028;-69
2021/07/25 07:24:56;;;;;;;15.13;11.23;;;;;;;;;;5014016;28;20022;-67
2021/07/25 07:27:22;;;;;;;15.15;11.52;;;;;;;;;;5014555;28;20025;-66
2021/07/25 07:29:48;;;;;;;17.08;10.68;;;;;;;;;;5014379;28;20018;-67
2021/07/25 07:32:14;;;;;;;18.60;10.75;;;;;;;;;;5014365;28;20447;-67
2021/07/25 07:34:40;;;;;;;17.33;11.30;;;;;;;;;;5014315;28;20105;-66
2021/07/25 07:37:05;;;;;;;21.65;9.43;;;;;;;;;;5014227;28;20020;-71
2021/07/25 07:39:31;;;;;;;19.17;10.63;;;;;;;;;;5013875;28;20050;-69
2021/07/25 07:41:56;;;;;;;12.35;8.93;;;;;;;;;;5014176;28;20101;-70
2021/07/25 07:44:22;;;;;;;17.73;9.13;;;;;;;;;;5014012;28;20037;-68
2021/07/25 07:46:47;;;;;;;14.60;9.32;;;;;;;;;;5013910;28;20080;-66
2021/07/25 07:49:13;;;;;;;17.90;9.93;;;;;;;;;;5014185;28;20093;-67
2021/07/25 07:51:38;;;;;;;15.25;9.52;;;;;;;;;;5014133;28;20050;-69
2021/07/25 07:54:04;;;;;;;10.32;9.02;;;;;;;;;;5012996;28;20034;-70
2021/07/25 07:56:31;;;;;;;12.20;8.70;;;;;;;;;;5013355;28;20026;-68
2021/07/25 07:58:56;;;;;;;10.15;8.48;;;;;;;;;;5013879;28;20068;-69
2021/07/25 08:01:23;;;;;;;14.40;8.60;;;;;;;;;;5013817;28;20018;-71
2021/07/25 08:03:48;;;;;;;11.02;8.55;;;;;;;;;;5013726;28;20029;-68
2021/07/25 08:06:14;;;;;;;12.48;8.38;;;;;;;;;;5013302;28;20602;-67
2021/07/25 08:08:40;;;;;;;9.20;8.10;;;;;;;;;;5013464;28;20056;-69
2021/07/25 08:11:05;;;;;;;11.65;8.02;;;;;;;;;;4996598;28;20060;-70
2021/07/25 08:13:31;;;;;;;11.10;7.65;;;;;;;;;;5013504;28;20360;-68
2021/07/25 08:15:56;;;;;;;10.68;8.10;;;;;;;;;;5013082;28;20168;-71
2021/07/25 08:18:22;;;;;;;14.65;8.07;;;;;;;;;;5013473;28;20028;-67
2021/07/25 08:20:48;;;;;;;19.00;8.18;;;;;;;;;;5013480;28;20025;-68
2021/07/25 08:23:14;;;;;;;9.15;7.72;;;;;;;;;;5013750;28;20107;-68
2021/07/25 08:25:39;;;;;;;14.02;8.02;;;;;;;;;;5012942;28;20040;-69
2021/07/25 08:28:05;;;;;;;10.90;7.88;;;;;;;;;;5013491;28;20479;-68
2021/07/25 08:30:32;;;;;;;10.57;6.85;;;;;;;;;;5013191;28;20022;-68
2021/07/25 08:32:58;;;;;;;10.70;7.57;;;;;;;;;;5013121;28;20058;-71
2021/07/25 08:35:24;;;;;;;11.43;8.18;;;;;;;;;;5012659;28;20061;-70
2021/07/25 08:37:50;;;;;;;11.48;7.82;;;;;;;;;;5013085;28;20039;-71
2021/07/25 08:40:16;;;;;;;15.15;7.70;;;;;;;;;;5012685;28;20380;-70
2021/07/25 08:42:47;;;;;;;9.10;7.15;;;;;;;;;;4995635;28;20077;-67
2021/07/25 08:45:14;;;;;;;12.23;7.45;;;;;;;;;;4995288;28;20525;-69
2021/07/25 08:47:40;;;;;;;10.85;7.95;;;;;;;;;;5013130;28;20018;-69
2021/07/25 08:50:07;;;;;;;15.23;8.88;;;;;;;;;;5013149;28;20049;-69
2021/07/25 08:52:37;;;;;;;9.55;7.30;;;;;;;;;;5012857;28;20029;-69
2021/07/25 08:55:04;;;;;;;10.02;7.38;;;;;;;;;;5012620;28;20029;-71
2021/07/25 08:57:31;;;;;;;11.95;6.93;;;;;;;;;;5012783;28;20040;-67
2021/07/25 08:59:57;;;;;;;10.77;7.85;;;;;;;;;;5013013;28;20021;-68
2021/07/25 09:02:24;;;;;;;9.63;6.82;;;;;;;;;;5012800;28;20014;-71
2021/07/25 09:04:50;;;;;;;13.32;6.75;;;;;;;;;;5012866;28;20116;-66
2021/07/25 09:07:17;;;;;;;11.95;6.63;;;;;;;;;;5011617;28;20108;-66
2021/07/25 09:09:44;;;;;;;15.70;7.10;;;;;;;;;;5012747;28;20084;-67
2021/07/25 09:12:11;;;;;;;11.25;7.32;;;;;;;;;;5012608;28;20113;-69
2021/07/25 09:14:45;;;;;;;9.73;6.22;;;;;;;;;;4990825;28;20026;-68
2021/07/25 09:17:12;;;;;;;12.95;6.72;;;;;;;;;;5012159;28;20018;-70
2021/07/25 09:19:57;;;;;;;10.45;7.20;;;;;;;;;;5012585;28;20032;-69
2021/07/25 09:22:23;;;;;;;17.60;6.80;;;;;;;;;;5012391;28;20038;-67
2021/07/25 09:24:51;;;;;;;15.60;8.82;;;;;;;;;;5012186;28;20072;-71
2021/07/25 09:27:23;;;;;;;12.68;7.63;;;;;;;;;;5012090;28;20014;-69
2021/07/25 09:29:49;;;;;;;10.80;7.28;;;;;;;;;;5012425;28;20490;-66
2021/07/25 09:32:18;;;;;;;9.13;6.93;;;;;;;;;;5012039;28;20022;-69
2021/07/25 09:34:50;;;;;;;14.27;7.32;;;;;;;;;;4994581;28;20156;-71
2021/07/25 09:37:17;;;;;;;9.45;6.80;;;;;;;;;;5012012;28;20032;-68
2021/07/25 09:39:45;;;;;;;9.95;7.50;;;;;;;;;;4990298;28;20189;-68
2021/07/25 09:42:11;;;;;;;8.30;7.30;;;;;;;;;;5007238;28;20029;-68
2021/07/25 09:44:55;;;;;;;11.35;7.97;;;;;;;;;;5012018;28;20475;-67
2021/07/25 09:47:34;;;;;;;13.90;7.30;;;;;;;;;;5012163;28;20471;-68
2021/07/25 09:50:01;;;;;;;8.95;7.15;;;;;;;;;;5012230;28;20072;-67
2021/07/25 09:52:31;;;;;;;10.68;7.38;;;;;;;;;;5012101;28;20030;-67
2021/07/25 09:54:58;;;;;;;10.23;7.50;;;;;;;;;;5011721;28;20021;-68
2021/07/25 09:57:25;;;;;;;9.50;7.38;;;;;;;;;;5011411;28;20026;-65
2021/07/25 09:59:52;;;;;;;26.63;8.57;;;;;;;;;;5012199;28;20243;-70
2021/07/25 10:02:38;;;;;;;14.68;8.20;;;;;;;;;;5012234;28;20092;-69
2021/07/25 10:05:08;;;;;;;10.38;7.38;;;;;;;;;;4994229;28;20126;-69
2021/07/25 10:07:34;;;;;;;12.82;7.93;;;;;;;;;;5011796;28;20018;-71
2021/07/25 10:10:00;;;;;;;13.20;7.40;;;;;;;;;;5011689;28;20494;-68
2021/07/25 10:12:31;;;;;;;10.10;7.50;;;;;;;;;;5012020;28;20062;-68
2021/07/25 10:15:01;;;;;;;18.27;8.18;;;;;;;;;;4989580;28;20117;-69
2021/07/25 10:17:31;;;;;;;16.42;8.40;;;;;;;;;;5010097;28;20014;-69
2021/07/25 10:19:58;;;;;;;12.98;8.52;;;;;;;;;;5015709;28;20387;-70
2021/07/25 10:22:27;;;;;;;11.10;7.70;;;;;;;;;;5015617;28;20053;-70
2021/07/25 10:24:56;;;;;;;13.30;7.75;;;;;;;;;;5015423;28;20025;-68
2021/07/25 10:27:23;;;;;;;14.48;7.88;;;;;;;;;;5015128;28;20022;-70
2021/07/25 10:29:48;;;;;;;11.25;8.57;;;;;;;;;;5015535;28;20050;-69
2021/07/25 10:32:17;;;;;;;10.48;7.43;;;;;;;;;;5015391;28;20100;-70
2021/07/25 10:34:43;;;;;;;20.85;8.45;;;;;;;;;;5015269;28;20010;-67
2021/07/25 10:37:10;;;;;;;15.85;8.02;;;;;;;;;;5015121;28;20090;-67
2021/07/25 10:39:36;;;;;;;11.32;7.90;;;;;;;;;;5008172;28;20050;-69
2021/07/25 10:42:02;;;;;;;10.98;7.75;;;;;;;;;;4995959;28;20158;-67
2021/07/25 10:44:28;;;;;;;12.05;8.32;;;;;;;;;;4995582;28;20026;-69
2021/07/25 10:47:06;;;;;;;13.43;7.90;;;;;;;;;;4995002;28;20014;-71
2021/07/25 10:49:32;;;;;;;11.35;7.93;;;;;;;;;;4995573;28;20022;-69
2021/07/25 10:51:58;;;;;;;14.45;8.18;;;;;;;;;;4995401;28;20018;-70
2021/07/25 10:54:27;;;;;;;15.00;8.15;;;;;;;;;;4995293;28;20030;-66
2021/07/25 10:57:07;;;;;;;10.13;7.68;;;;;;;;;;4994998;28;20018;-68
2021/07/25 10:59:40;;;;;;;12.40;7.57;;;;;;;;;;4995498;28;20444;-68
2021/07/25 11:02:07;;;;;;;9.05;7.68;;;;;;;;;;4995343;28;20022;-68
2021/07/25 11:04:52;;;;;;;14.35;8.07;;;;;;;;;;4995312;28;20022;-69
2021/07/25 11:07:30;;;;;;;10.27;7.90;;;;;;;;;;4995030;28;20446;-70
2021/07/25 11:10:05;;;;;;;8.73;7.82;;;;;;;;;;4995354;28;20019;-70
2021/07/25 11:12:56;;;;;;;9.63;7.97;;;;;;;;;;4995127;28;20475;-70
2021/07/25 11:15:32;;;;;;;9.43;8.05;;;;;;;;;;4994567;28;20014;-70
2021/07/25 11:17:58;;;;;;;9.30;8.00;;;;;;;;;;4994688;28;20022;-69
2021/07/25 11:20:44;;;;;;;10.80;7.95;;;;;;;;;;4994909;28;20109;-68
2021/07/25 11:23:26;;;;;;;11.98;7.65;;;;;;;;;;4994985;28;20498;-67
2021/07/25 11:25:53;;;;;;;13.40;8.23;;;;;;;;;;4994356;28;20030;-70
2021/07/25 11:28:29;;;;;;;10.80;8.15;;;;;;;;;;4994665;28;20019;-71
2021/07/25 11:31:01;;;;;;;9.20;7.32;;;;;;;;;;4994145;28;20018;-67
2021/07/25 11:33:46;;;;;;;13.55;8.00;;;;;;;;;;4994792;28;20045;-69
2021/07/25 11:36:13;;;;;;;9.23;7.32;;;;;;;;;;4993901;28;20113;-70
2021/07/25 11:38:40;;;;;;;8.75;7.85;;;;;;;;;;4977412;28;20022;-67
2021/07/25 11:41:07;;;;;;;9.50;7.65;;;;;;;;;;4994805;28;20080;-69
2021/07/25 11:43:49;;;;;;;8.25;7.28;;;;;;;;;;4995068;28;20022;-69
2021/07/25 11:46:29;;;;;;;13.18;8.07;;;;;;;;;;4993877;28;20014;-68
2021/07/25 11:49:07;;;;;;;14.70;8.90;;;;;;;;;;4973119;28;20111;-72
2021/07/25 11:51:33;;;;;;;12.93;8.00;;;;;;;;;;4991832;28;20026;-69
2021/07/25 11:53:59;;;;;;;13.95;8.18;;;;;;;;;;4976568;28;20053;-70
2021/07/25 11:56:26;;;;;;;12.38;7.63;;;;;;;;;;4993923;28;20019;-70
2021/07/25 11:58:59;;;;;;;9.55;6.70;;;;;;;;;;4976848;28;20395;-69
2021/07/25 12:01:26;;;;;;;11.60;7.43;;;;;;;;;;4994429;28;20022;-68
2021/07/25 12:03:52;;;;;;;11.70;7.55;;;;;;;;;;4994287;28;20026;-67
2021/07/25 12:06:18;;;;;;;10.35;7.03;;;;;;;;;;4976024;28;20014;-72
2021/07/25 12:09:03;;;;;;;11.73;7.20;;;;;;;;;;4994449;28;20022;-68
2021/07/25 12:11:29;;;;;;;13.20;7.85;;;;;;;;;;4994292;28;20431;-70
2021/07/25 12:13:55;;;;;;;9.65;7.45;;;;;;;;;;4992600;28;20391;-70
2021/07/25 12:16:21;;;;;;;12.18;6.78;;;;;;;;;;4993614;28;20081;-69
2021/07/25 12:18:47;;;;;;;15.73;8.38;;;;;;;;;;4993963;28;20014;-71
2021/07/25 12:21:23;;;;;;;13.10;7.10;;;;;;;;;;4994307;28;20021;-67
2021/07/25 12:23:49;;;;;;;12.63;7.47;;;;;;;;;;4993634;28;20446;-68
2021/07/25 12:26:20;;;;;;;12.65;7.70;;;;;;;;;;4992921;28;20084;-67
2021/07/25 12:28:45;;;;;;;10.07;7.07;;;;;;;;;;4993681;28;20069;-69
2021/07/25 12:31:10;;;;;;;15.50;7.28;;;;;;;;;;4976932;28;20027;-68
2021/07/25 12:33:36;;;;;;;7.78;6.57;;;;;;;;;;4993709;28;20437;-69
2021/07/25 12:36:16;;;;;;;8.10;7.05;;;;;;;;;;4992966;28;20019;-71
2021/07/25 12:38:41;;;;;;;10.63;7.45;;;;;;;;;;4993535;28;20080;-67
2021/07/25 12:41:08;;;;;;;9.35;6.65;;;;;;;;;;4993510;28;20133;-68
2021/07/25 12:43:33;;;;;;;10.20;6.53;;;;;;;;;;4993872;28;20097;-71
2021/07/25 12:46:00;;;;;;;10.52;7.20;;;;;;;;;;4993147;28;20127;-70
2021/07/25 12:48:27;;;;;;;12.35;8.25;;;;;;;;;;4993164;28;20158;-69
2021/07/25 12:51:07;;;;;;;8.52;7.13;;;;;;;;;;4993326;28;20015;-69
2021/07/25 12:53:38;;;;;;;9.70;7.43;;;;;;;;;;4993265;28;20038;-70
2021/07/25 12:56:05;;;;;;;14.38;7.50;;;;;;;;;;4975348;28;20073;-67
2021/07/25 12:58:33;;;;;;;8.80;7.80;;;;;;;;;;4992997;28;20027;-71
2021/07/25 13:06:17;;;;;;;10.27;7.60;;;;;;;;;;4992898;28;20029;-71
2021/07/25 13:08:44;;;;;;;8.02;7.20;;;;;;;;;;4971489;28;20034;-70
2021/07/25 13:11:11;;;;;;;13.13;7.85;;;;;;;;;;4988057;28;20019;-68
2021/07/25 13:13:37;;;;;;;9.23;7.30;;;;;;;;;;4993068;28;20034;-71
2021/07/25 13:16:03;;;;;;;11.07;7.47;;;;;;;;;;4992264;28;20022;-70
2021/07/25 13:18:29;;;;;;;10.15;7.65;;;;;;;;;;4992694;28;20594;-68
2021/07/25 13:20:55;;;;;;;9.80;7.50;;;;;;;;;;4993102;28;20050;-70
2021/07/25 13:23:21;;;;;;;12.48;8.48;;;;;;;;;;4993214;28;20069;-69
2021/07/25 13:25:46;;;;;;;10.45;7.68;;;;;;;;;;4974957;28;20014;-70
2021/07/25 13:28:12;;;;;;;11.55;7.22;;;;;;;;;;4992345;28;20034;-66
2021/07/25 13:30:38;;;;;;;11.55;7.47;;;;;;;;;;4992728;28;20014;-71
2021/07/25 13:33:04;;;;;;;17.13;7.80;;;;;;;;;;4992822;28;20061;-69
2021/07/25 13:35:29;;;;;;;10.45;7.72;;;;;;;;;;4992842;28;20031;-68
2021/07/25 13:37:55;;;;;;;7.82;7.03;;;;;;;;;;4992062;28;20029;-69
2021/07/25 13:40:22;;;;;;;13.15;7.75;;;;;;;;;;5005604;28;20133;-67
2021/07/25 13:42:48;;;;;;;14.50;8.90;;;;;;;;;;5012253;28;20022;-71
2021/07/25 13:45:13;;;;;;;17.55;8.23;;;;;;;;;;5012143;28;20018;-68
2021/07/25 13:47:39;;;;;;;12.73;7.80;;;;;;;;;;5011780;28;20052;-69
2021/07/25 13:50:05;;;;;;;10.32;7.50;;;;;;;;;;5012275;28;20025;-67
2021/07/25 13:52:31;;;;;;;15.27;7.35;;;;;;;;;;5012914;28;20030;-69
2021/07/25 13:54:58;;;;;;;11.00;7.68;;;;;;;;;;5015869;28;20022;-66
2021/07/25 13:57:23;;;;;;;20.08;7.95;;;;;;;;;;4998384;28;20096;-67
2021/07/25 13:59:49;;;;;;;11.25;7.65;;;;;;;;;;5016114;28;20066;-70
2021/07/25 14:02:15;;;;;;;8.77;7.88;;;;;;;;;;5015993;28;20475;-70
2021/07/25 14:04:41;;;;;;;13.20;7.10;;;;;;;;;;5016000;28;20017;-70
2021/07/25 14:07:07;;;;;;;12.25;7.88;;;;;;;;;;5015888;28;20363;-66
2021/07/25 14:09:32;;;;;;;16.42;7.57;;;;;;;;;;5016286;28;20021;-68
2021/07/25 14:11:59;;;;;;;9.48;7.93;;;;;;;;;;5015864;28;20064;-69
2021/07/25 14:14:25;;;;;;;11.52;7.28;;;;;;;;;;5015287;28;20026;-67
2021/07/25 14:16:51;;;;;;;15.05;7.55;;;;;;;;;;5014735;28;20029;-67
2021/07/25 14:19:18;;;;;;;12.77;7.93;;;;;;;;;;5016202;28;20057;-68
2021/07/25 14:21:44;;;;;;;18.42;8.68;;;;;;;;;;5016073;28;20025;-71
2021/07/25 14:24:10;;;;;;;11.07;8.05;;;;;;;;;;5015482;28;20018;-70
2021/07/25 14:26:36;;;;;;;12.90;8.10;;;;;;;;;;5015524;28;20076;-67
2021/07/25 14:29:01;;;;;;;13.50;7.97;;;;;;;;;;5015532;28;20093;-71
2021/07/25 14:31:28;;;;;;;11.77;7.63;;;;;;;;;;5015614;28;20054;-67